createdAt,value
2023-08-01T00:02:08.932Z,100293.88
2023-08-01T00:04:39.161Z,100300.50
2023-08-01T00:07:12.036Z,100294.84
2023-08-01T00:09:42.252Z,100300.69
2023-08-01T00:12:12.977Z,100280.88
2023-08-01T00:14:43.175Z,100299.09
2023-08-01T00:17:13.493Z,100256.28
2023-08-01T00:19:43.671Z,100292.31
2023-08-01T00:22:16.728Z,100284.41
2023-08-01T00:24:48.772Z,100283.16
2023-08-01T00:27:19.067Z,100276.13
2023-08-01T00:29:49.506Z,100267.41
2023-08-01T00:32:21.940Z,100247.88
2023-08-01T00:34:54.711Z,100264.22
2023-08-01T00:37:27.562Z,100250.63
2023-08-01T00:39:57.776Z,100265.38
2023-08-01T00:42:28.155Z,100265.16
2023-08-01T00:45:02.282Z,100267.00
2023-08-01T00:47:32.571Z,100255.91
2023-08-01T00:50:03.021Z,100259.88
2023-08-01T00:52:35.865Z,100260.66
2023-08-01T00:55:06.693Z,100256.63
2023-08-01T00:57:39.163Z,100259.34
2023-08-01T01:00:10.907Z,100250.28
2023-08-01T01:02:41.708Z,100239.34
2023-08-01T01:05:12.115Z,100255.53
2023-08-01T01:07:45.790Z,100255.91
2023-08-01T01:10:16.045Z,100243.75
2023-08-01T01:12:46.504Z,100240.69
2023-08-01T01:15:16.827Z,100242.88
2023-08-01T01:17:47.088Z,100234.50
2023-08-01T01:20:17.397Z,100251.75
2023-08-01T01:22:50.526Z,100245.84
2023-08-01T01:25:21.308Z,100235.22
2023-08-01T01:27:54.387Z,100233.28
2023-08-01T01:30:26.322Z,100227.72
2023-08-01T01:32:56.765Z,100231.59
2023-08-01T01:35:27.646Z,100226.13
2023-08-01T01:38:05.012Z,100228.41
2023-08-01T01:40:35.589Z,100229.91
2023-08-01T01:43:06.491Z,100206.03
2023-08-01T01:45:37.908Z,100232.19
2023-08-01T01:48:08.208Z,100225.06
2023-08-01T01:50:38.420Z,100221.91
2023-08-01T01:53:11.259Z,100224.16
2023-08-01T01:55:41.517Z,100235.06
2023-08-01T01:58:14.691Z,100225.22
2023-08-01T02:00:44.923Z,100220.38
2023-08-01T02:03:15.121Z,100221.03
2023-08-01T02:05:45.592Z,100208.34
2023-08-01T02:08:18.640Z,100212.66
2023-08-01T02:10:48.927Z,100216.63
2023-08-01T02:13:21.064Z,100209.91
2023-08-01T02:15:51.381Z,100211.97
2023-08-01T02:18:21.556Z,100209.91
2023-08-01T02:20:51.819Z,100208.00
2023-08-01T02:23:24.701Z,100209.91
2023-08-01T02:25:55.582Z,100209.16
2023-08-01T02:28:28.074Z,100211.19
2023-08-01T02:30:59.463Z,100207.91
2023-08-01T02:33:29.802Z,100203.16
2023-08-01T02:36:00.119Z,100200.06
2023-08-01T02:38:32.965Z,100202.69
2023-08-01T02:41:03.366Z,100204.28
2023-08-01T02:43:34.698Z,100200.66
2023-08-01T02:46:06.996Z,100197.50
2023-08-01T02:48:37.447Z,100201.81
2023-08-01T02:51:10.580Z,100168.78
2023-08-01T02:53:45.109Z,100161.53
2023-08-01T02:56:15.399Z,100212.97
2023-08-01T02:58:46.512Z,100199.03
2023-08-01T03:01:17.718Z,100210.50
2023-08-01T03:03:48.136Z,100206.59
2023-08-01T03:06:19.566Z,100201.94
2023-08-01T03:08:53.273Z,100208.91
2023-08-01T03:11:23.573Z,100209.25
2023-08-01T03:13:53.899Z,100200.97
2023-08-01T03:16:24.348Z,100198.03
2023-08-01T03:18:54.743Z,100198.75
2023-08-01T03:21:27.937Z,100201.81
2023-08-01T03:24:02.885Z,100202.03
2023-08-01T03:26:33.073Z,100204.44
2023-08-01T03:29:03.254Z,100202.75
2023-08-01T03:31:33.800Z,100205.38
2023-08-01T03:34:04.081Z,100204.09
2023-08-01T03:36:34.985Z,100208.75
2023-08-01T03:39:11.351Z,100204.91
2023-08-01T03:41:42.116Z,100206.41
2023-08-01T03:44:12.053Z,100199.34
2023-08-01T03:46:42.484Z,100201.53
2023-08-01T03:49:13.093Z,100204.00
2023-08-01T03:51:43.318Z,100193.09
2023-08-01T03:54:16.134Z,100198.75
2023-08-01T03:56:47.442Z,100205.38
2023-08-01T03:59:18.351Z,100203.53
2023-08-01T04:01:48.435Z,100201.72
2023-08-01T04:04:18.866Z,100198.63
2023-08-01T04:06:49.345Z,100194.44
2023-08-01T04:09:24.162Z,100199.88
2023-08-01T04:11:54.591Z,100193.28
2023-08-01T04:14:24.767Z,100200.88
2023-08-01T04:16:54.936Z,100198.59
2023-08-01T04:19:26.238Z,100196.66
2023-08-01T04:21:56.469Z,100183.72
2023-08-01T04:24:32.389Z,100191.66
2023-08-01T04:27:02.543Z,100191.31
2023-08-01T04:29:32.730Z,100191.41
2023-08-01T04:32:02.938Z,100191.16
2023-08-01T04:34:33.141Z,100179.56
2023-08-01T04:37:03.736Z,100186.25
2023-08-01T04:39:36.540Z,100190.31
2023-08-01T04:42:10.136Z,100184.63
2023-08-01T04:44:40.316Z,100168.84
2023-08-01T04:47:10.606Z,100193.63
2023-08-01T04:49:40.851Z,100198.06
2023-08-01T04:52:11.994Z,100193.19
2023-08-01T04:54:44.782Z,100193.81
2023-08-01T04:57:15.890Z,100180.09
2023-08-01T04:59:46.394Z,100186.34
2023-08-01T05:02:16.668Z,100190.75
2023-08-01T05:04:47.092Z,100189.06
2023-08-01T05:07:17.237Z,100180.25
2023-08-01T05:09:50.112Z,100179.28
2023-08-01T05:12:20.414Z,100175.94
2023-08-01T05:14:50.601Z,100176.91
2023-08-01T05:17:20.779Z,100173.97
2023-08-01T05:19:54.097Z,100167.72
2023-08-01T05:22:24.338Z,100169.81
2023-08-01T05:24:57.173Z,100168.75
2023-08-01T05:27:27.503Z,100169.28
2023-08-01T05:29:57.713Z,100173.28
2023-08-01T05:32:28.029Z,100160.88
2023-08-01T05:34:58.284Z,100164.53
2023-08-01T05:37:28.594Z,100154.88
2023-08-01T05:40:01.428Z,100161.78
2023-08-01T05:42:33.867Z,100163.81
2023-08-01T05:45:05.478Z,100160.78
2023-08-01T05:47:36.078Z,100153.97
2023-08-01T05:50:06.926Z,100157.28
2023-08-01T05:52:37.225Z,100162.53
2023-08-01T05:55:13.350Z,100170.41
2023-08-01T05:57:44.952Z,100153.09
2023-08-01T06:00:17.028Z,100168.41
2023-08-01T06:02:47.468Z,100164.19
2023-08-01T06:05:17.970Z,100161.56
2023-08-01T06:07:48.199Z,100166.38
2023-08-01T06:10:21.278Z,100164.84
2023-08-01T06:12:51.547Z,100160.75
2023-08-01T06:15:23.003Z,100161.91
2023-08-01T06:17:53.192Z,100165.97
2023-08-01T06:20:23.582Z,100168.06
2023-08-01T06:22:53.792Z,100165.47
2023-08-01T06:25:27.816Z,100161.28
2023-08-01T06:27:58.531Z,100148.81
2023-08-01T06:30:28.537Z,100149.28
2023-08-01T06:32:58.723Z,100142.38
2023-08-01T06:35:28.994Z,100135.44
2023-08-01T06:37:59.316Z,100136.66
2023-08-01T06:40:35.169Z,100135.25
2023-08-01T06:43:06.641Z,100140.19
2023-08-01T06:45:38.953Z,100134.38
2023-08-01T06:48:09.963Z,100136.84
2023-08-01T06:50:40.817Z,100127.03
2023-08-01T06:53:14.189Z,100118.47
2023-08-01T06:55:47.615Z,100138.56
2023-08-01T06:58:18.182Z,100120.94
2023-08-01T07:00:49.363Z,100121.00
2023-08-01T07:03:36.778Z,100125.91
2023-08-01T07:06:10.951Z,100087.28
2023-08-01T07:08:44.334Z,100129.59
2023-08-01T07:11:25.560Z,100132.41
2023-08-01T07:14:00.136Z,100133.25
2023-08-01T07:16:30.520Z,100128.59
2023-08-01T07:19:02.228Z,100123.63
2023-08-01T07:21:32.836Z,100125.25
2023-08-01T07:24:07.770Z,100120.63
2023-08-01T07:26:53.329Z,100119.09
2023-08-01T07:29:25.000Z,100124.28
2023-08-01T07:31:55.292Z,100119.94
2023-08-01T07:34:27.038Z,100114.91
2023-08-01T07:36:57.185Z,100113.00
2023-08-01T07:39:27.543Z,100113.06
2023-08-01T07:42:00.540Z,100125.25
2023-08-01T07:44:30.750Z,100111.16
2023-08-01T07:47:03.713Z,100093.47
2023-08-01T07:49:33.882Z,100110.47
2023-08-01T07:52:07.500Z,100110.84
2023-08-01T07:54:38.694Z,100103.44
2023-08-01T07:57:15.325Z,100104.63
2023-08-01T07:59:45.764Z,100103.88
2023-08-01T08:02:18.582Z,100105.84
2023-08-01T08:04:49.194Z,100095.22
2023-08-01T08:07:20.907Z,100095.22
2023-08-01T08:09:51.149Z,100090.91
2023-08-01T08:12:24.137Z,100098.41
2023-08-01T08:14:54.515Z,100087.41
2023-08-01T08:17:27.186Z,100086.66
2023-08-01T08:19:57.618Z,100082.34
2023-08-01T08:22:28.653Z,100058.34
2023-08-01T08:25:01.321Z,100080.38
2023-08-01T08:27:35.274Z,100075.66
2023-08-01T08:30:05.672Z,100067.03
2023-08-01T08:32:36.085Z,100068.56
2023-08-01T08:35:06.730Z,100062.69
2023-08-01T08:37:39.358Z,100057.19
2023-08-01T08:40:10.743Z,100055.19
2023-08-01T08:42:44.224Z,100052.44
2023-08-01T08:45:16.235Z,100044.97
2023-08-01T08:47:55.807Z,100042.19
2023-08-01T08:50:30.335Z,100044.91
2023-08-01T08:53:21.719Z,100028.78
2023-08-01T08:55:56.387Z,100028.75
2023-08-01T08:58:39.546Z,100022.84
2023-08-01T09:01:13.220Z,100021.19
2023-08-01T09:03:45.320Z,100021.97
2023-08-01T09:06:19.386Z,100013.31
2023-08-01T09:08:58.083Z,100002.19
2023-08-01T09:11:30.075Z,100005.69
2023-08-01T09:14:03.538Z,100006.03
2023-08-01T09:16:34.150Z,99991.84
2023-08-01T09:19:07.336Z,100005.19
2023-08-01T09:21:39.307Z,100000.06
2023-08-01T09:24:16.947Z,99993.34
2023-08-01T09:26:48.602Z,99992.53
2023-08-01T09:29:26.788Z,99997.97
2023-08-01T09:31:57.048Z,99987.69
2023-08-01T09:34:28.591Z,99976.53
2023-08-01T09:37:03.746Z,99969.41
2023-08-01T09:39:36.148Z,99971.28
2023-08-01T09:42:07.465Z,99978.75
2023-08-01T09:44:50.777Z,99972.38
2023-08-01T09:47:24.238Z,99965.97
2023-08-01T09:50:06.254Z,99937.22
2023-08-01T09:52:38.673Z,99965.78
2023-08-01T09:55:19.270Z,99958.59
2023-08-01T09:58:09.442Z,99956.91
2023-08-01T10:00:45.416Z,99959.63
2023-08-01T10:03:22.936Z,99945.72
2023-08-01T10:05:59.173Z,99942.50
2023-08-01T10:08:34.624Z,99913.28
2023-08-01T10:11:09.027Z,99908.41
2023-08-01T10:13:40.437Z,99921.91
2023-08-01T10:16:19.609Z,99912.50
2023-08-01T10:18:56.541Z,99910.34
2023-08-01T10:21:30.440Z,99892.09
2023-08-01T10:24:05.855Z,99895.84
2023-08-01T10:26:46.038Z,99890.38
2023-08-01T10:29:21.618Z,99901.31
2023-08-01T10:31:58.999Z,99890.97
2023-08-01T10:34:29.378Z,99886.91
2023-08-01T10:37:17.544Z,99886.78
2023-08-01T10:40:09.370Z,99867.66
2023-08-01T10:42:43.708Z,99851.03
2023-08-01T10:45:26.680Z,99871.94
2023-08-01T10:48:12.329Z,99873.41
2023-08-01T10:50:44.608Z,99878.06
2023-08-01T10:53:18.391Z,99864.28
2023-08-01T10:55:51.854Z,99853.97
2023-08-01T10:58:22.734Z,99845.59
2023-08-01T11:01:06.966Z,99855.59
2023-08-01T11:03:46.172Z,99826.72
2023-08-01T11:06:16.819Z,99844.91
2023-08-01T11:08:47.096Z,99836.81
2023-08-01T11:11:21.165Z,99825.63
2023-08-01T11:13:57.934Z,99824.50
2023-08-01T11:16:30.996Z,99826.06
2023-08-01T11:19:08.678Z,99827.66
2023-08-01T11:21:39.353Z,99817.06
2023-08-01T11:24:11.319Z,99818.53
2023-08-01T11:26:45.625Z,99816.72
2023-08-01T11:29:16.517Z,99806.50
2023-08-01T11:31:56.813Z,99815.00
2023-08-01T11:34:32.564Z,99811.72
2023-08-01T11:37:04.134Z,99798.06
2023-08-01T11:39:34.583Z,99796.81
2023-08-01T11:42:07.554Z,99771.69
2023-08-01T11:44:37.706Z,99787.09
2023-08-01T11:47:17.343Z,99782.03
2023-08-01T11:49:56.488Z,99780.38
2023-08-01T11:52:30.529Z,99788.25
2023-08-01T11:55:00.776Z,99786.78
2023-08-01T11:57:31.398Z,99788.81
2023-08-01T12:00:01.563Z,99784.31
2023-08-01T12:02:33.855Z,99777.66
2023-08-01T12:05:10.364Z,99776.47
2023-08-01T12:07:40.670Z,99776.09
2023-08-01T12:10:11.827Z,99762.56
2023-08-01T12:12:49.666Z,99764.38
2023-08-01T12:15:21.781Z,99766.31
2023-08-01T12:18:03.724Z,99770.97
2023-08-01T12:20:56.907Z,99766.19
2023-08-01T12:23:31.222Z,99766.75
2023-08-01T12:26:03.378Z,99742.06
2023-08-01T12:28:36.340Z,99751.19
2023-08-01T12:31:07.957Z,99742.41
2023-08-01T12:33:40.772Z,99719.81
2023-08-01T12:36:17.970Z,99720.00
2023-08-01T12:38:56.309Z,99729.44
2023-08-01T12:41:30.200Z,99731.53
2023-08-01T12:44:00.885Z,99718.63
2023-08-01T12:46:37.063Z,99720.84
2023-08-01T12:49:14.166Z,99690.59
2023-08-01T12:51:52.637Z,99721.94
2023-08-01T12:54:32.590Z,99720.22
2023-08-01T12:57:13.422Z,99721.59
2023-08-01T12:59:48.742Z,99709.53
2023-08-01T13:02:38.415Z,99707.53
2023-08-01T13:05:12.410Z,99692.94
2023-08-01T13:07:48.032Z,99690.34
2023-08-01T13:10:18.648Z,99691.41
2023-08-01T13:12:49.297Z,99694.84
2023-08-01T13:15:19.976Z,99676.09
2023-08-01T13:17:50.492Z,99683.19
2023-08-01T13:20:23.174Z,99681.03
2023-08-01T13:22:56.632Z,99675.84
2023-08-01T13:25:27.062Z,99660.69
2023-08-01T13:27:57.678Z,99662.59
2023-08-01T13:30:28.026Z,99663.84
2023-08-01T13:32:57.979Z,99643.69
2023-08-01T13:35:29.391Z,99637.50
2023-08-01T13:38:02.544Z,99622.69
2023-08-01T13:40:33.117Z,99632.31
2023-08-01T13:43:03.573Z,99633.72
2023-08-01T13:45:34.605Z,99626.41
2023-08-01T13:48:04.999Z,99607.78
2023-08-01T13:50:35.376Z,99618.16
2023-08-01T13:53:11.724Z,99614.88
2023-08-01T13:55:42.213Z,99601.81
2023-08-01T13:58:12.509Z,99611.59
2023-08-01T14:00:42.794Z,99612.81
2023-08-01T14:03:12.856Z,99612.59
2023-08-01T14:05:45.535Z,99603.59
2023-08-01T14:08:18.429Z,99601.59
2023-08-01T14:10:51.164Z,99604.19
2023-08-01T14:13:21.352Z,99595.53
2023-08-01T14:15:51.501Z,99600.47
2023-08-01T14:18:21.936Z,99602.19
2023-08-01T14:20:51.877Z,99601.50
2023-08-01T14:23:26.579Z,99582.53
2023-08-01T14:25:56.870Z,99599.19
2023-08-01T14:28:27.097Z,99598.69
2023-08-01T14:30:57.599Z,99596.75
2023-08-01T14:33:28.155Z,99597.63
2023-08-01T14:35:58.527Z,99577.78
2023-08-01T14:38:32.778Z,99587.25
2023-08-01T14:41:14.508Z,99584.91
2023-08-01T14:43:53.014Z,99571.03
2023-08-01T14:46:23.377Z,99587.16
2023-08-01T14:48:53.709Z,99585.94
2023-08-01T14:51:23.942Z,99571.03
2023-08-01T14:53:59.213Z,99563.47
2023-08-01T14:56:29.526Z,99575.25
2023-08-01T14:59:00.727Z,99579.47
2023-08-01T15:01:32.030Z,99574.47
2023-08-01T15:04:02.421Z,99559.41
2023-08-01T15:06:33.968Z,99565.66
2023-08-01T15:09:07.511Z,99551.34
2023-08-01T15:11:39.046Z,99556.56
2023-08-01T15:14:09.697Z,99545.09
2023-08-01T15:16:41.086Z,99554.50
2023-08-01T15:19:11.538Z,99551.69
2023-08-01T15:21:44.413Z,99550.47
2023-08-01T15:24:17.718Z,99548.31
2023-08-01T15:26:48.180Z,99556.91
2023-08-01T15:29:18.331Z,99546.28
2023-08-01T15:31:48.624Z,99554.50
2023-08-01T15:34:23.273Z,99544.97
2023-08-01T15:36:53.665Z,99545.03
2023-08-01T15:39:26.719Z,99546.47
2023-08-01T15:41:57.211Z,99548.13
2023-08-01T15:44:28.676Z,99546.25
2023-08-01T15:47:00.533Z,99549.09
2023-08-01T15:49:30.729Z,99550.00
2023-08-01T15:52:00.926Z,99549.00
2023-08-01T15:54:40.093Z,99555.78
2023-08-01T15:57:16.324Z,99549.09
2023-08-01T15:59:51.372Z,99538.91
2023-08-01T16:02:25.677Z,99544.31
2023-08-01T16:05:00.434Z,99531.22
2023-08-01T16:07:41.890Z,99517.31
2023-08-01T16:10:17.237Z,99535.19
2023-08-01T16:12:51.898Z,99523.16
2023-08-01T16:15:32.922Z,99525.59
2023-08-01T16:18:10.584Z,99486.34
2023-08-01T16:20:41.287Z,99492.22
2023-08-01T16:23:23.796Z,99496.13
2023-08-01T16:26:06.304Z,99512.00
2023-08-01T16:28:38.298Z,99507.06
2023-08-01T16:31:08.811Z,99477.72
2023-08-01T16:33:38.682Z,99500.75
2023-08-01T16:36:14.882Z,99511.69
2023-08-01T16:38:47.423Z,99510.31
2023-08-01T16:41:25.205Z,99509.53
2023-08-01T16:43:56.570Z,99505.28
2023-08-01T16:46:26.949Z,99512.84
2023-08-01T16:49:00.156Z,99490.25
2023-08-01T16:51:37.349Z,99507.72
2023-08-01T16:54:08.276Z,99499.94
2023-08-01T16:56:41.462Z,99508.69
2023-08-01T16:59:11.790Z,99519.34
2023-08-01T17:01:42.268Z,99513.78
2023-08-01T17:04:12.511Z,99513.38
2023-08-01T17:06:45.692Z,99515.38
2023-08-01T17:09:18.508Z,99516.25
2023-08-01T17:11:51.605Z,99517.78
2023-08-01T17:14:22.128Z,99521.09
2023-08-01T17:16:54.769Z,99516.41
2023-08-01T17:19:26.869Z,99507.06
2023-08-01T17:21:57.338Z,99505.72
2023-08-01T17:24:30.565Z,99494.09
2023-08-01T17:27:06.324Z,99501.56
2023-08-01T17:29:36.904Z,99493.47
2023-08-01T17:32:09.327Z,99502.75
2023-08-01T17:34:41.022Z,99483.69
2023-08-01T17:37:13.672Z,99485.34
2023-08-01T17:39:43.856Z,99482.31
2023-08-01T17:42:16.719Z,99484.06
2023-08-01T17:44:47.005Z,99478.66
2023-08-01T17:47:19.143Z,99472.09
2023-08-01T17:49:50.702Z,99453.00
2023-08-01T17:52:21.316Z,99461.81
2023-08-01T17:54:51.302Z,99468.41
2023-08-01T17:57:24.398Z,99469.06
2023-08-01T17:59:56.737Z,99470.41
2023-08-01T18:02:40.872Z,99478.72
2023-08-01T18:05:17.925Z,99474.47
2023-08-01T18:07:48.638Z,99468.97
2023-08-01T18:10:28.407Z,99467.13
2023-08-01T18:13:02.469Z,99468.00
2023-08-01T18:15:32.762Z,99470.81
2023-08-01T18:18:05.645Z,99464.22
2023-08-01T18:20:41.289Z,99465.50
2023-08-01T18:23:15.870Z,99457.06
2023-08-01T18:25:46.018Z,99481.31
2023-08-01T18:28:18.822Z,99483.28
2023-08-01T18:30:49.278Z,99478.19
2023-08-01T18:33:19.524Z,99479.03
2023-08-01T18:35:50.312Z,99482.22
2023-08-01T18:38:20.581Z,99490.94
2023-08-01T18:40:50.800Z,99493.34
2023-08-01T18:43:23.649Z,99501.28
2023-08-01T18:45:59.440Z,99475.13
2023-08-01T18:48:30.129Z,99486.13
2023-08-01T18:51:02.019Z,99508.22
2023-08-01T18:53:34.811Z,99497.31
2023-08-01T18:56:13.173Z,99500.84
2023-08-01T18:58:46.787Z,99509.13
2023-08-01T19:01:19.141Z,99507.19
2023-08-01T19:03:50.258Z,99511.91
2023-08-01T19:06:21.286Z,99506.84
2023-08-01T19:09:02.526Z,99517.13
2023-08-01T19:11:46.920Z,99515.19
2023-08-01T19:14:19.832Z,99503.41
2023-08-01T19:16:50.165Z,99512.47
2023-08-01T19:19:21.175Z,99504.69
2023-08-01T19:21:51.394Z,99500.41
2023-08-01T19:24:23.837Z,99514.63
2023-08-01T19:26:54.090Z,99509.16
2023-08-01T19:29:27.076Z,99501.38
2023-08-01T19:31:57.439Z,99496.03
2023-08-01T19:34:28.479Z,99504.66
2023-08-01T19:36:59.942Z,99486.00
2023-08-01T19:39:34.678Z,99496.31
2023-08-01T19:42:17.434Z,99478.06
2023-08-01T19:44:51.058Z,99494.31
2023-08-01T19:47:22.813Z,99484.97
2023-08-01T19:49:53.079Z,99481.25
2023-08-01T19:52:23.500Z,99490.03
2023-08-01T19:54:55.908Z,99488.16
2023-08-01T19:57:28.071Z,99486.84
2023-08-01T20:00:10.206Z,99468.09
2023-08-01T20:02:48.048Z,99484.69
2023-08-01T20:05:18.379Z,99478.88
2023-08-01T20:07:48.705Z,99476.66
2023-08-01T20:10:18.944Z,99479.03
2023-08-01T20:12:51.722Z,99486.09
2023-08-01T20:15:24.608Z,99487.69
2023-08-01T20:17:55.282Z,99489.25
2023-08-01T20:20:26.329Z,99497.53
2023-08-01T20:22:56.228Z,99500.69
2023-08-01T20:25:26.500Z,99488.59
2023-08-01T20:27:57.834Z,99468.22
2023-08-01T20:30:30.758Z,99495.63
2023-08-01T20:33:01.012Z,99499.88
2023-08-01T20:35:31.365Z,99502.66
2023-08-01T20:38:01.586Z,99514.44
2023-08-01T20:40:35.322Z,99493.28
2023-08-01T20:43:05.524Z,99512.81
2023-08-01T20:45:38.433Z,99518.31
2023-08-01T20:48:12.677Z,99519.91
2023-08-01T20:50:43.306Z,99523.84
2023-08-01T20:53:16.097Z,99524.66
2023-08-01T20:55:47.665Z,99531.69
2023-08-01T20:58:18.409Z,99529.31
2023-08-01T21:00:51.135Z,99534.81
2023-08-01T21:03:21.321Z,99510.56
2023-08-01T21:05:51.981Z,99527.72
2023-08-01T21:08:21.915Z,99535.59
2023-08-01T21:10:52.232Z,99523.88
2023-08-01T21:13:22.638Z,99538.00
2023-08-01T21:15:55.434Z,99547.41
2023-08-01T21:18:26.723Z,99543.50
2023-08-01T21:20:56.858Z,99562.78
2023-08-01T21:23:27.456Z,99571.47
2023-08-01T21:25:59.386Z,99681.56
2023-08-01T21:28:30.464Z,99695.94
2023-08-01T21:31:03.315Z,99612.34
2023-08-01T21:33:34.127Z,99633.94
2023-08-01T21:36:04.406Z,99663.81
2023-08-01T21:38:38.528Z,99672.06
2023-08-01T21:41:10.154Z,99673.25
2023-08-01T21:43:40.305Z,99651.25
2023-08-01T21:46:13.835Z,99683.88
2023-08-01T21:48:44.095Z,99670.13
2023-08-01T21:51:14.274Z,99692.06
2023-08-01T21:53:46.578Z,99697.50
2023-08-01T21:56:16.756Z,99696.09
2023-08-01T21:58:46.985Z,99701.78
2023-08-01T22:01:19.897Z,99694.88
2023-08-01T22:03:51.255Z,99723.34
2023-08-01T22:06:22.758Z,99712.34
2023-08-01T22:08:52.988Z,99722.69
2023-08-01T22:11:24.269Z,99718.25
2023-08-01T22:13:56.093Z,99729.00
2023-08-01T22:16:28.885Z,99741.53
2023-08-01T22:18:59.216Z,99745.56
2023-08-01T22:21:32.033Z,99757.47
2023-08-01T22:24:03.570Z,99765.09
2023-08-01T22:26:33.857Z,99751.59
2023-08-01T22:29:04.078Z,99763.88
2023-08-01T22:31:37.200Z,99759.44
2023-08-01T22:34:12.144Z,99757.50
2023-08-01T22:36:43.398Z,99783.72
2023-08-01T22:39:16.107Z,99782.97
2023-08-01T22:41:46.419Z,99789.34
2023-08-01T22:44:16.859Z,99798.56
2023-08-01T22:46:52.076Z,99789.47
2023-08-01T22:49:22.295Z,99789.41
2023-08-01T22:51:52.457Z,99796.13
2023-08-01T22:54:23.246Z,99800.50
2023-08-01T22:56:53.486Z,99808.50
2023-08-01T22:59:23.735Z,99801.16
2023-08-01T23:01:56.936Z,99803.28
2023-08-01T23:04:29.461Z,99803.56
2023-08-01T23:07:00.329Z,99796.16
2023-08-01T23:09:30.260Z,99815.38
2023-08-01T23:12:01.062Z,99819.81
2023-08-01T23:14:31.295Z,99816.97
2023-08-01T23:17:04.126Z,99804.00
2023-08-01T23:19:36.628Z,99824.44
2023-08-01T23:22:08.959Z,99838.81
2023-08-01T23:24:42.485Z,99837.81
2023-08-01T23:27:17.767Z,99861.44
2023-08-01T23:29:48.211Z,99876.00
2023-08-01T23:32:21.021Z,99891.16
2023-08-01T23:34:51.173Z,99900.91
2023-08-01T23:37:21.363Z,99892.81
2023-08-01T23:39:51.535Z,99915.50
2023-08-01T23:42:24.258Z,99916.81
2023-08-01T23:44:56.670Z,99907.09
2023-08-01T23:47:29.723Z,99904.84
2023-08-01T23:49:59.895Z,99907.88
2023-08-01T23:52:30.147Z,99913.13
2023-08-01T23:55:00.491Z,99911.09
2023-08-01T23:57:30.776Z,99921.53
